createdAt,value
2023-08-14T00:00:35.185Z,27.70
2023-08-14T00:03:45.285Z,27.60
2023-08-14T00:06:55.382Z,27.50
2023-08-14T00:10:03.469Z,27.40
2023-08-14T00:13:14.495Z,27.40
2023-08-14T00:16:23.507Z,27.50
2023-08-14T00:19:34.615Z,27.50
2023-08-14T00:22:43.753Z,27.50
2023-08-14T00:25:51.686Z,27.50
2023-08-14T00:29:01.176Z,27.50
2023-08-14T00:32:11.173Z,27.50
2023-08-14T00:35:22.280Z,27.50
2023-08-14T00:38:32.011Z,27.50
2023-08-14T00:41:42.558Z,27.50
2023-08-14T00:44:51.739Z,27.50
2023-08-14T00:47:59.624Z,27.50
2023-08-14T00:51:07.954Z,27.50
2023-08-14T00:54:17.184Z,27.50
2023-08-14T00:57:26.655Z,27.50
2023-08-14T01:00:37.205Z,27.50
2023-08-14T01:03:45.678Z,27.50
2023-08-14T01:06:57.296Z,27.60
2023-08-14T01:10:04.548Z,27.60
2023-08-14T01:13:15.472Z,27.60
2023-08-14T01:16:24.161Z,27.70
2023-08-14T01:19:34.397Z,27.60
2023-08-14T01:22:45.144Z,27.60
2023-08-14T01:25:52.911Z,27.60
2023-08-14T01:29:04.394Z,27.50
2023-08-14T01:32:15.347Z,27.50
2023-08-14T01:35:25.124Z,27.40
2023-08-14T01:38:38.021Z,27.30
2023-08-14T01:41:46.655Z,27.30
2023-08-14T01:44:56.622Z,27.30
2023-08-14T01:48:06.751Z,27.40
2023-08-14T01:51:15.175Z,27.40
2023-08-14T01:54:24.370Z,27.40
2023-08-14T01:57:32.717Z,27.40
2023-08-14T02:00:41.986Z,27.40
2023-08-14T02:03:52.238Z,27.40
2023-08-14T02:07:00.742Z,27.40
2023-08-14T02:10:08.930Z,27.50
2023-08-14T02:13:18.627Z,27.40
2023-08-14T02:16:27.802Z,27.40
2023-08-14T02:19:35.167Z,27.50
2023-08-14T02:22:46.136Z,27.50
2023-08-14T02:25:55.106Z,27.50
2023-08-14T02:29:04.328Z,27.50
2023-08-14T02:32:12.153Z,27.50
2023-08-14T02:35:19.591Z,27.40
2023-08-14T02:38:30.658Z,27.50
2023-08-14T02:41:38.155Z,27.50
2023-08-14T02:44:47.988Z,27.50
2023-08-14T02:47:55.596Z,27.50
2023-08-14T02:51:06.165Z,27.50
2023-08-14T02:54:12.641Z,27.50
2023-08-14T02:57:19.448Z,27.50
2023-08-14T03:00:25.222Z,27.50
2023-08-14T03:03:33.950Z,27.50
2023-08-14T03:06:44.362Z,27.40
2023-08-14T03:09:54.318Z,27.50
2023-08-14T03:13:03.537Z,27.60
2023-08-14T03:16:12.719Z,27.60
2023-08-14T03:19:21.117Z,27.60
2023-08-14T03:22:30.405Z,27.60
2023-08-14T03:25:39.929Z,27.60
2023-08-14T03:28:49.375Z,27.70
2023-08-14T03:31:58.731Z,27.70
2023-08-14T03:35:09.828Z,27.60
2023-08-14T03:38:19.188Z,27.60
2023-08-14T03:41:27.789Z,27.60
2023-08-14T03:44:37.666Z,27.60
2023-08-14T03:47:48.646Z,27.70
2023-08-14T03:50:55.802Z,27.60
2023-08-14T03:54:03.850Z,27.60
2023-08-14T03:57:15.302Z,27.70
2023-08-14T04:00:23.577Z,27.70
2023-08-14T04:03:33.429Z,27.70
2023-08-14T04:06:42.665Z,27.60
2023-08-14T04:09:52.944Z,27.60
2023-08-14T04:13:01.312Z,27.70
2023-08-14T04:16:10.418Z,27.70
2023-08-14T04:19:18.846Z,27.70
2023-08-14T04:22:28.381Z,27.60
2023-08-14T04:25:37.709Z,27.70
2023-08-14T04:28:46.683Z,27.60
2023-08-14T04:31:57.938Z,27.70
2023-08-14T04:35:07.557Z,27.60
2023-08-14T04:38:18.118Z,27.60
2023-08-14T04:41:29.005Z,27.60
2023-08-14T04:44:37.670Z,27.60
2023-08-14T04:47:47.796Z,27.60
2023-08-14T04:50:56.095Z,27.60
2023-08-14T04:54:04.428Z,27.60
2023-08-14T04:57:14.368Z,27.60
2023-08-14T05:00:22.047Z,27.60
2023-08-14T05:03:32.329Z,27.60
2023-08-14T05:06:42.511Z,27.60
2023-08-14T05:09:52.522Z,27.60
2023-08-14T05:12:58.264Z,27.60
2023-08-14T05:16:09.296Z,27.60
2023-08-14T05:19:20.142Z,27.60
2023-08-14T05:22:29.052Z,27.60
2023-08-14T05:25:38.218Z,27.60
2023-08-14T05:28:48.044Z,27.60
2023-08-14T05:31:56.489Z,27.60
2023-08-14T05:35:06.111Z,27.60
2023-08-14T05:38:15.186Z,27.60
2023-08-14T05:41:26.055Z,27.60
2023-08-14T05:44:34.995Z,27.60
2023-08-14T05:47:42.933Z,27.60
2023-08-14T05:50:51.093Z,27.50
2023-08-14T05:53:58.159Z,27.60
2023-08-14T05:57:05.497Z,27.60
2023-08-14T06:00:20.579Z,27.50
2023-08-14T06:03:42.015Z,27.50
2023-08-14T06:06:38.429Z,27.50
2023-08-14T06:09:48.277Z,27.50
2023-08-14T06:12:56.402Z,27.50
2023-08-14T06:16:06.945Z,27.50
2023-08-14T06:19:18.732Z,27.50
2023-08-14T06:22:27.789Z,27.50
2023-08-14T06:25:40.506Z,27.50
2023-08-14T06:28:49.082Z,27.50
2023-08-14T06:32:01.243Z,27.50
2023-08-14T06:35:08.416Z,27.40
2023-08-14T06:38:17.342Z,27.50
2023-08-14T06:41:23.104Z,27.50
2023-08-14T06:44:31.303Z,27.40
2023-08-14T06:47:41.289Z,27.40
2023-08-14T06:50:50.526Z,27.40
2023-08-14T06:53:57.870Z,27.40
2023-08-14T06:57:11.462Z,27.40
2023-08-14T07:00:20.690Z,27.40
2023-08-14T07:03:30.954Z,27.40
2023-08-14T07:06:38.471Z,27.40
2023-08-14T07:09:47.436Z,27.40
2023-08-14T07:12:58.245Z,27.40
2023-08-14T07:16:07.440Z,27.50
2023-08-14T07:19:15.364Z,27.40
2023-08-14T07:22:24.760Z,27.40
2023-08-14T07:25:33.688Z,27.40
2023-08-14T07:28:43.366Z,27.40
2023-08-14T07:31:51.532Z,27.40
2023-08-14T07:34:58.918Z,27.40
2023-08-14T07:38:09.978Z,27.40
2023-08-14T07:41:19.246Z,27.30
2023-08-14T07:44:30.688Z,27.40
2023-08-14T07:47:40.777Z,27.40
2023-08-14T07:50:51.251Z,27.30
2023-08-14T07:54:00.958Z,27.30
2023-08-14T07:57:08.720Z,27.30
2023-08-14T08:00:21.690Z,27.30
2023-08-14T08:03:33.567Z,27.30
2023-08-14T08:06:45.145Z,27.30
2023-08-14T08:09:57.651Z,27.30
2023-08-14T08:13:07.563Z,27.30
2023-08-14T08:16:17.832Z,27.30
2023-08-14T08:19:24.846Z,27.30
2023-08-14T08:22:33.595Z,27.30
2023-08-14T08:25:43.257Z,27.20
2023-08-14T08:28:53.320Z,27.30
2023-08-14T08:32:05.072Z,27.20
2023-08-14T08:35:17.560Z,27.20
2023-08-14T08:38:25.302Z,27.20
2023-08-14T08:41:35.014Z,27.20
2023-08-14T08:44:44.301Z,27.20
2023-08-14T08:47:54.947Z,27.20
2023-08-14T08:51:04.110Z,27.20
2023-08-14T08:54:14.813Z,27.20
2023-08-14T08:57:21.130Z,27.10
2023-08-14T09:00:31.818Z,27.20
2023-08-14T09:03:40.836Z,27.20
2023-08-14T09:06:50.128Z,27.20
2023-08-14T09:09:58.367Z,27.20
2023-08-14T09:13:09.377Z,27.20
2023-08-14T09:16:18.918Z,27.20
2023-08-14T09:19:26.297Z,27.20
2023-08-14T09:22:36.831Z,27.20
2023-08-14T09:25:45.141Z,27.10
2023-08-14T09:28:55.434Z,27.10
2023-08-14T09:32:03.805Z,27.10
2023-08-14T09:35:16.842Z,27.10
2023-08-14T09:38:26.262Z,27.10
2023-08-14T09:41:35.896Z,27.10
2023-08-14T09:44:42.669Z,27.10
2023-08-14T09:47:55.655Z,27.10
2023-08-14T09:51:07.496Z,27.10
2023-08-14T09:54:17.683Z,27.10
2023-08-14T09:57:29.196Z,27.10
2023-08-14T10:00:38.342Z,27.10
2023-08-14T10:03:50.024Z,27.10
2023-08-14T10:07:00.124Z,27.10
2023-08-14T10:10:13.380Z,27.10
2023-08-14T10:13:23.822Z,27.10
2023-08-14T10:16:34.165Z,27.10
2023-08-14T10:19:40.816Z,27.10
2023-08-14T10:22:51.864Z,27.10
2023-08-14T10:26:00.733Z,27.10
2023-08-14T10:29:08.736Z,27.10
2023-08-14T10:32:22.144Z,27.10
2023-08-14T10:35:32.261Z,27.00
2023-08-14T10:38:47.568Z,27.00
2023-08-14T10:41:56.147Z,27.00
2023-08-14T10:45:04.454Z,27.10
2023-08-14T10:48:17.586Z,27.00
2023-08-14T10:51:24.455Z,27.00
2023-08-14T10:54:35.723Z,27.00
2023-08-14T10:57:47.177Z,27.00
2023-08-14T11:00:56.227Z,27.00
2023-08-14T11:04:10.778Z,27.00
2023-08-14T11:07:19.185Z,27.00
2023-08-14T11:10:26.870Z,27.00
2023-08-14T11:13:33.131Z,27.00
2023-08-14T11:16:48.877Z,27.00
2023-08-14T11:20:00.440Z,27.00
2023-08-14T11:23:10.095Z,26.90
2023-08-14T11:26:18.627Z,26.90
2023-08-14T11:29:30.951Z,26.90
2023-08-14T11:32:41.755Z,26.90
2023-08-14T11:35:52.066Z,26.90
2023-08-14T11:39:00.540Z,26.90
2023-08-14T11:42:09.529Z,27.00
2023-08-14T11:45:20.459Z,27.00
2023-08-14T11:48:30.475Z,27.00
2023-08-14T11:51:40.167Z,27.00
2023-08-14T11:54:49.313Z,27.00
2023-08-14T11:57:58.956Z,27.00
2023-08-14T12:01:06.805Z,27.00
2023-08-14T12:04:17.039Z,27.00
2023-08-14T12:07:26.472Z,27.00
2023-08-14T12:10:36.917Z,27.10
2023-08-14T12:13:47.201Z,27.10
2023-08-14T12:17:00.379Z,27.10
2023-08-14T12:20:11.747Z,27.10
2023-08-14T12:23:20.879Z,27.10
2023-08-14T12:26:28.870Z,27.10
2023-08-14T12:29:37.441Z,27.10
2023-08-14T12:36:08.480Z,27.20
2023-08-14T12:39:15.782Z,27.20
2023-08-14T12:42:25.365Z,27.30
2023-08-14T12:45:35.709Z,27.30
2023-08-14T12:48:43.972Z,27.40
2023-08-14T12:51:52.960Z,27.40
2023-08-14T12:55:06.150Z,27.40
2023-08-14T12:58:12.017Z,27.40
2023-08-14T13:01:24.061Z,27.40
2023-08-14T13:04:35.755Z,27.50
2023-08-14T13:07:43.298Z,27.50
2023-08-14T13:10:52.647Z,27.60
2023-08-14T13:14:01.701Z,27.60
2023-08-14T13:17:13.226Z,27.60
2023-08-14T13:20:19.862Z,27.60
2023-08-14T13:23:29.246Z,27.70
2023-08-14T13:26:40.356Z,27.70
2023-08-14T13:29:50.465Z,27.80
2023-08-14T13:33:00.870Z,27.80
2023-08-14T13:36:13.173Z,27.90
2023-08-14T13:39:20.785Z,27.90
2023-08-14T13:42:30.062Z,27.90
2023-08-14T13:45:43.977Z,28.00
2023-08-14T13:48:51.746Z,28.00
2023-08-14T13:52:01.631Z,28.10
2023-08-14T13:55:11.950Z,28.10
2023-08-14T13:58:21.611Z,28.10
2023-08-14T14:01:32.639Z,28.10
2023-08-14T14:04:43.290Z,28.10
2023-08-14T14:07:55.619Z,28.10
2023-08-14T14:11:03.655Z,28.10
2023-08-14T14:14:13.074Z,28.10
2023-08-14T14:17:24.820Z,28.10
2023-08-14T14:20:31.498Z,28.10
2023-08-14T14:23:41.140Z,28.10
2023-08-14T14:26:49.440Z,28.10
2023-08-14T14:29:57.555Z,28.10
2023-08-14T14:33:06.203Z,28.10
2023-08-14T14:36:17.419Z,28.10
2023-08-14T14:39:24.022Z,28.10
2023-08-14T14:42:32.551Z,28.10
2023-08-14T14:45:42.939Z,28.10
2023-08-14T14:48:50.492Z,28.10
2023-08-14T14:51:58.259Z,28.10
2023-08-14T14:55:07.304Z,28.10
2023-08-14T14:58:17.772Z,28.10
2023-08-14T15:01:26.363Z,28.10
2023-08-14T15:04:35.791Z,28.10
2023-08-14T15:07:47.469Z,28.10
2023-08-14T15:10:56.111Z,28.10
2023-08-14T15:14:07.375Z,28.20
2023-08-14T15:17:18.197Z,28.20
2023-08-14T15:20:27.524Z,28.20
2023-08-14T15:23:38.725Z,28.20
2023-08-14T15:26:52.286Z,28.20
2023-08-14T15:29:58.536Z,28.20
2023-08-14T15:33:09.591Z,28.20
2023-08-14T15:36:18.407Z,28.20
2023-08-14T15:39:28.776Z,28.20
2023-08-14T15:42:36.992Z,28.20
2023-08-14T15:45:46.267Z,28.20
2023-08-14T15:48:57.774Z,28.30
2023-08-14T15:52:06.484Z,28.30
2023-08-14T15:55:16.184Z,28.30
2023-08-14T15:58:25.658Z,28.30
2023-08-14T16:01:34.539Z,28.40
2023-08-14T16:04:41.251Z,28.40
2023-08-14T16:07:51.580Z,28.40
2023-08-14T16:11:02.660Z,28.40
2023-08-14T16:14:12.476Z,28.30
2023-08-14T16:17:20.477Z,28.40
2023-08-14T16:20:30.754Z,28.90
2023-08-14T16:23:41.790Z,29.10
2023-08-14T16:26:52.114Z,29.20
2023-08-14T16:29:57.951Z,28.90
2023-08-14T16:33:07.535Z,28.50
2023-08-14T16:39:31.903Z,28.30
2023-08-14T16:42:40.471Z,28.40
2023-08-14T16:45:52.433Z,28.50
2023-08-14T16:49:00.605Z,28.50
2023-08-14T16:52:10.350Z,28.50
2023-08-14T16:55:19.092Z,28.50
2023-08-14T16:58:31.126Z,28.50
2023-08-14T17:01:39.843Z,28.50
2023-08-14T17:04:49.599Z,28.60
2023-08-14T17:07:58.884Z,28.60
2023-08-14T17:11:05.404Z,28.60
2023-08-14T17:14:14.338Z,28.60
2023-08-14T17:17:23.989Z,28.50
2023-08-14T17:20:30.082Z,28.40
2023-08-14T17:23:38.570Z,28.40
2023-08-14T17:26:47.056Z,28.30
2023-08-14T17:29:57.377Z,28.20
2023-08-14T17:33:05.124Z,28.20
2023-08-14T17:36:12.830Z,28.10
2023-08-14T17:39:22.317Z,28.10
2023-08-14T17:42:33.999Z,28.10
2023-08-14T17:45:45.994Z,28.20
2023-08-14T17:48:56.527Z,28.20
2023-08-14T17:52:05.824Z,28.30
2023-08-14T17:55:18.503Z,28.30
2023-08-14T17:58:31.979Z,28.40
2023-08-14T18:01:44.487Z,28.40
2023-08-14T18:04:54.900Z,28.40
2023-08-14T18:08:02.994Z,28.40
2023-08-14T18:11:10.278Z,28.40
2023-08-14T18:14:20.113Z,28.40
2023-08-14T18:17:29.730Z,28.40
2023-08-14T18:20:40.040Z,28.40
2023-08-14T18:23:46.587Z,28.40
2023-08-14T18:26:54.147Z,28.30
2023-08-14T18:30:05.013Z,28.20
2023-08-14T18:33:14.453Z,28.20
2023-08-14T18:36:26.274Z,28.10
2023-08-14T18:39:34.926Z,28.10
2023-08-14T18:42:45.313Z,28.00
2023-08-14T18:45:59.013Z,28.00
2023-08-14T18:49:06.582Z,27.90
2023-08-14T18:52:15.915Z,27.90
2023-08-14T18:55:26.486Z,28.00
2023-08-14T18:58:35.404Z,28.10
2023-08-14T19:01:44.268Z,28.20
2023-08-14T19:04:53.558Z,28.20
2023-08-14T19:08:03.351Z,28.30
2023-08-14T19:11:11.868Z,28.30
2023-08-14T19:14:22.387Z,28.30
2023-08-14T19:17:34.726Z,28.30
2023-08-14T19:20:46.457Z,28.30
2023-08-14T19:23:55.385Z,28.30
2023-08-14T19:27:04.475Z,28.30
2023-08-14T19:30:12.676Z,28.20
2023-08-14T19:33:25.438Z,28.10
2023-08-14T19:36:35.848Z,28.10
2023-08-14T19:39:46.643Z,28.00
2023-08-14T19:42:56.466Z,28.00
2023-08-14T19:46:06.062Z,27.90
2023-08-14T19:49:11.608Z,27.90
2023-08-14T19:52:21.108Z,27.90
2023-08-14T19:55:32.577Z,27.90
2023-08-14T19:58:43.262Z,28.10
2023-08-14T20:01:53.322Z,28.10
2023-08-14T20:05:03.670Z,28.20
2023-08-14T20:08:11.656Z,28.20
2023-08-14T20:11:20.018Z,28.20
2023-08-14T20:14:28.047Z,28.20
2023-08-14T20:17:37.774Z,28.20
2023-08-14T20:20:47.192Z,28.20
2023-08-14T20:23:56.049Z,28.10
2023-08-14T20:27:02.778Z,28.00
2023-08-14T20:30:14.885Z,28.00
2023-08-14T20:33:24.284Z,27.90
2023-08-14T20:36:34.379Z,27.90
2023-08-14T20:39:46.601Z,27.90
2023-08-14T20:42:56.699Z,27.90
2023-08-14T20:46:05.439Z,27.80
2023-08-14T20:49:13.741Z,27.80
2023-08-14T20:52:22.965Z,27.70
2023-08-14T20:55:33.444Z,27.70
2023-08-14T20:58:43.205Z,27.70
2023-08-14T21:01:53.229Z,27.60
2023-08-14T21:05:04.040Z,27.60
2023-08-14T21:08:13.200Z,27.70
2023-08-14T21:11:22.471Z,27.70
2023-08-14T21:14:31.350Z,27.80
2023-08-14T21:17:43.403Z,27.90
2023-08-14T21:20:49.148Z,28.00
2023-08-14T21:23:59.363Z,28.10
2023-08-14T21:27:09.065Z,28.10
2023-08-14T21:30:19.590Z,28.10
2023-08-14T21:33:27.814Z,28.10
2023-08-14T21:36:38.007Z,28.00
2023-08-14T21:39:44.761Z,27.90
2023-08-14T21:42:52.813Z,27.90
2023-08-14T21:46:02.609Z,27.80
2023-08-14T21:49:10.991Z,27.70
2023-08-14T21:52:20.708Z,27.60
2023-08-14T21:55:31.374Z,27.60
2023-08-14T21:58:41.109Z,27.60
2023-08-14T22:01:49.312Z,27.60
2023-08-14T22:05:00.324Z,27.70
2023-08-14T22:08:12.053Z,27.70
2023-08-14T22:11:23.680Z,27.80
2023-08-14T22:14:33.903Z,27.80
2023-08-14T22:17:42.635Z,27.80
2023-08-14T22:20:53.818Z,27.90
2023-08-14T22:24:04.814Z,27.90
2023-08-14T22:27:13.820Z,27.90
2023-08-14T22:30:23.629Z,27.90
2023-08-14T22:33:34.428Z,27.90
2023-08-14T22:36:41.728Z,27.90
2023-08-14T22:39:49.410Z,27.90
2023-08-14T22:43:00.526Z,27.90
2023-08-14T22:46:10.742Z,27.80
2023-08-14T22:49:21.172Z,27.70
2023-08-14T22:52:27.603Z,27.70
2023-08-14T22:55:35.317Z,27.70
2023-08-14T22:58:44.330Z,27.70
2023-08-14T23:01:53.422Z,27.60
2023-08-14T23:05:02.569Z,27.70
2023-08-14T23:08:12.370Z,27.70
2023-08-14T23:11:21.951Z,27.70
2023-08-14T23:14:31.002Z,27.80
2023-08-14T23:17:38.496Z,27.90
2023-08-14T23:20:48.326Z,28.00
2023-08-14T23:23:57.965Z,28.00
2023-08-14T23:27:07.678Z,28.10
2023-08-14T23:30:17.696Z,28.10
2023-08-14T23:33:24.070Z,28.10
2023-08-14T23:36:33.491Z,28.10
2023-08-14T23:39:46.201Z,27.90
2023-08-14T23:42:56.346Z,27.90
2023-08-14T23:46:05.698Z,27.80
2023-08-14T23:49:14.079Z,27.70
2023-08-14T23:52:26.089Z,27.70
2023-08-14T23:55:35.354Z,27.60
2023-08-14T23:58:44.437Z,27.60
